Time;durP1;ratioP1;P1;durP2;ratioP2;P2;SDS_P1;SDS_P2;PMS_P1;PMS_P2;Temp;Humidity;BMP_temperature;BMP_pressure;BME280_temperature;BME280_humidity;BME280_pressure;Samples;Min_cycle;Max_cycle;Signal;HPM_P1;HPM_P2
2023/09/25 00:02:17;;;;;;;7.63;4.47;;;8.20;99.90;7.20;101818;;;;574645;246;25130;-76
2023/09/25 00:04:45;;;;;;;9.97;5.57;;;8.10;99.90;7.20;101802;;;;574656;246;24121;-77
2023/09/25 00:07:13;;;;;;;6.67;4.57;;;8.10;99.90;7.20;101815;;;;574717;246;24090;-77
2023/09/25 00:09:41;;;;;;;6.57;4.63;;;8.00;99.90;7.20;101815;;;;574896;246;24153;-77
2023/09/25 00:12:09;;;;;;;10.80;4.67;;;8.00;99.90;7.10;101813;;;;574772;246;24082;-76
2023/09/25 00:14:38;;;;;;;8.80;5.00;;;8.00;99.90;7.10;101813;;;;574603;246;25166;-77
2023/09/25 00:17:06;;;;;;;5.20;4.30;;;8.00;99.90;7.10;101816;;;;574733;246;24133;-77
2023/09/25 00:19:34;;;;;;;6.83;3.67;;;8.00;99.90;7.10;101812;;;;574674;246;24097;-77
2023/09/25 00:22:02;;;;;;;8.03;4.23;;;8.00;99.90;7.10;101819;;;;574823;246;24148;-77
2023/09/25 00:24:29;;;;;;;5.77;4.20;;;8.00;99.90;7.10;101816;;;;574995;246;24064;-77
2023/09/25 00:26:57;;;;;;;4.77;3.60;;;8.00;99.90;7.10;101813;;;;575148;246;24088;-77
2023/09/25 00:29:25;;;;;;;8.63;3.90;;;7.90;99.90;7.00;101820;;;;575134;245;24071;-76
2023/09/25 00:31:53;;;;;;;5.17;4.17;;;7.90;99.90;7.00;101828;;;;574649;246;24089;-76
2023/09/25 00:34:21;;;;;;;7.27;3.93;;;7.90;99.90;7.00;101823;;;;574675;240;24186;-76
2023/09/25 00:36:49;;;;;;;7.23;4.10;;;7.90;99.90;7.00;101823;;;;576105;245;24069;-76
2023/09/25 00:39:17;;;;;;;6.57;3.90;;;7.90;99.90;7.00;101823;;;;575888;245;24059;-76
2023/09/25 00:41:45;;;;;;;7.17;4.13;;;7.80;99.90;7.00;101825;;;;575520;245;24103;-75
2023/09/25 00:44:13;;;;;;;7.17;4.20;;;7.80;99.90;7.00;101820;;;;575307;245;24055;-76
2023/09/25 00:46:40;;;;;;;7.13;3.60;;;7.90;99.90;7.00;101823;;;;575320;245;24089;-77
2023/09/25 00:49:11;;;;;;;8.07;4.13;;;7.90;99.90;7.00;101824;;;;575181;245;24057;-76
2023/09/25 00:51:36;;;;;;;7.93;3.73;;;7.90;99.90;7.10;101819;;;;574097;247;24116;-76
2023/09/25 00:54:05;;;;;;;5.40;3.50;;;7.90;99.90;7.00;101827;;;;580589;247;24098;-76
2023/09/25 00:56:33;;;;;;;5.50;3.77;;;7.90;99.90;7.00;101832;;;;580810;247;24133;-76
2023/09/25 00:59:01;;;;;;;6.97;4.20;;;7.90;99.90;6.90;101816;;;;572158;247;24086;-77
2023/09/25 01:01:31;;;;;;;5.27;4.30;;;7.80;99.90;6.90;101820;;;;580812;247;24076;-78
2023/09/25 01:03:57;;;;;;;5.13;4.20;;;7.80;99.90;6.90;101813;;;;571802;247;24110;-78
2023/09/25 01:06:24;;;;;;;5.73;4.27;;;7.80;99.90;6.90;101815;;;;571692;247;24119;-75
2023/09/25 01:08:52;;;;;;;8.50;4.63;;;7.80;99.90;6.90;101816;;;;571834;247;24098;-77
2023/09/25 01:11:22;;;;;;;9.50;4.27;;;7.70;99.90;6.80;101807;;;;571665;247;24079;-76
2023/09/25 01:13:48;;;;;;;8.60;4.93;;;7.70;99.90;6.80;101796;;;;578516;248;24072;-76
2023/09/25 01:16:16;;;;;;;5.87;3.97;;;7.70;99.90;6.80;101790;;;;570973;247;24129;-77
2023/09/25 01:18:44;;;;;;;9.00;4.30;;;7.60;99.90;6.70;101797;;;;582984;242;24063;-77
2023/09/25 01:21:12;;;;;;;5.43;4.23;;;7.60;99.90;6.70;101799;;;;582036;242;24075;-77
2023/09/25 01:23:40;;;;;;;8.67;4.43;;;7.60;99.90;6.70;101810;;;;581876;242;24162;-77
2023/09/25 01:26:08;;;;;;;8.47;4.60;;;7.60;99.90;6.70;101797;;;;583470;242;24110;-77
2023/09/25 01:28:36;;;;;;;8.50;3.97;;;7.50;99.90;6.70;101792;;;;574958;246;24174;-77
2023/09/25 01:31:07;;;;;;;4.47;4.07;;;7.50;99.90;6.70;101791;;;;575135;246;24057;-78
2023/09/25 01:33:33;;;;;;;7.03;4.43;;;7.50;99.90;6.60;101792;;;;574641;246;25171;-77
2023/09/25 01:36:01;;;;;;;8.97;3.97;;;7.50;99.90;6.70;101797;;;;580086;247;24182;-77
2023/09/25 01:38:29;;;;;;;7.07;4.03;;;7.50;99.90;6.70;101804;;;;571586;247;24122;-77
2023/09/25 01:40:57;;;;;;;5.87;3.93;;;7.50;99.90;6.70;101800;;;;571527;247;24130;-77
2023/09/25 01:43:24;;;;;;;6.23;3.73;;;7.50;99.90;6.70;101800;;;;580116;242;24096;-77
2023/09/25 01:45:52;;;;;;;4.97;3.60;;;7.50;99.90;6.70;101813;;;;581931;241;24051;-77
2023/09/25 01:48:21;;;;;;;5.37;3.90;;;7.50;99.90;6.60;101801;;;;576051;245;24088;-76
2023/09/25 01:50:49;;;;;;;5.60;3.53;;;7.50;99.90;6.60;101815;;;;575889;245;24075;-77
2023/09/25 01:53:17;;;;;;;5.13;3.77;;;7.50;99.90;6.60;101808;;;;575550;245;24145;-77
2023/09/25 01:55:45;;;;;;;4.77;3.13;;;7.50;99.90;6.60;101809;;;;575926;245;24069;-78
2023/09/25 01:58:13;;;;;;;7.63;3.70;;;7.50;99.90;6.60;101814;;;;575263;245;24080;-77
2023/09/25 02:00:41;;;;;;;7.83;3.60;;;7.50;99.90;6.60;101804;;;;575248;245;24058;-76
2023/09/25 02:03:08;;;;;;;6.53;3.17;;;7.50;99.90;6.70;101808;;;;575318;245;24069;-76
2023/09/25 02:05:36;;;;;;;7.77;3.77;;;7.50;99.90;6.70;101801;;;;571813;247;24142;-76
2023/09/25 02:08:04;;;;;;;5.13;3.43;;;7.50;99.90;6.70;101808;;;;571943;247;24138;-76
2023/09/25 02:10:32;;;;;;;8.30;3.80;;;7.60;99.90;6.70;101795;;;;591261;241;24119;-77
2023/09/25 02:13:00;;;;;;;4.70;3.20;;;7.60;99.90;6.70;101800;;;;571457;247;24105;-77
2023/09/25 02:15:28;;;;;;;5.03;3.27;;;7.60;99.90;6.70;101806;;;;571678;247;24093;-76
2023/09/25 02:17:56;;;;;;;7.30;3.47;;;7.60;99.90;6.80;101807;;;;571146;247;24131;-76
2023/09/25 02:20:25;;;;;;;7.10;3.47;;;7.70;99.90;6.80;101793;;;;571242;247;24066;-76
2023/09/25 02:22:52;;;;;;;4.20;3.07;;;7.70;99.90;6.80;101793;;;;571665;247;24095;-76
2023/09/25 02:25:20;;;;;;;5.33;3.30;;;7.70;99.90;6.80;101806;;;;571944;247;24097;-76
2023/09/25 02:27:48;;;;;;;7.63;3.23;;;7.70;99.90;6.70;101805;;;;580619;247;24140;-75
2023/09/25 02:30:16;;;;;;;3.27;2.87;;;7.70;99.90;6.70;101798;;;;582337;242;24064;-76
2023/09/25 02:32:44;;;;;;;6.43;3.33;;;7.70;99.90;6.80;101807;;;;571853;247;24128;-76
2023/09/25 02:35:12;;;;;;;6.70;2.97;;;7.70;99.90;6.80;101809;;;;571435;247;24094;-77
2023/09/25 02:37:41;;;;;;;5.87;3.77;;;7.70;99.90;6.80;101806;;;;580322;247;24164;-77
2023/09/25 02:40:12;;;;;;;4.43;3.17;;;7.60;99.90;6.80;101800;;;;571447;247;24081;-77
2023/09/25 02:42:36;;;;;;;8.17;3.03;;;7.70;99.90;6.80;101805;;;;571188;247;24130;-77
2023/09/25 02:45:04;;;;;;;6.33;2.87;;;7.70;99.90;6.80;101802;;;;583122;242;24058;-77
2023/09/25 02:47:32;;;;;;;3.27;2.73;;;7.70;99.90;6.80;101813;;;;581955;242;24065;-77
2023/09/25 02:50:00;;;;;;;6.87;2.90;;;7.70;99.90;6.80;101806;;;;581972;242;24154;-78
2023/09/25 02:52:28;;;;;;;4.53;2.30;;;7.70;99.90;6.80;101814;;;;581862;242;24116;-78
2023/09/25 02:54:56;;;;;;;5.43;2.10;;;7.70;99.90;6.80;101813;;;;582354;242;24068;-77
2023/09/25 02:57:24;;;;;;;5.83;2.33;;;7.70;99.90;6.80;101819;;;;571442;247;24095;-77
2023/09/25 02:59:52;;;;;;;6.90;2.60;;;7.70;99.90;6.80;101823;;;;571700;247;24073;-77
2023/09/25 03:02:20;;;;;;;3.10;1.80;;;7.80;99.90;6.80;101823;;;;572464;246;24084;-76
2023/09/25 03:04:48;;;;;;;3.80;2.13;;;7.70;99.90;6.90;101826;;;;570686;247;24106;-77
2023/09/25 03:07:15;;;;;;;5.17;2.30;;;7.80;99.90;6.90;101823;;;;572010;246;24095;-77
2023/09/25 03:09:43;;;;;;;5.47;2.20;;;7.80;99.90;6.90;101819;;;;572319;247;24100;-77
2023/09/25 03:12:11;;;;;;;2.70;1.77;;;7.80;99.90;6.90;101823;;;;571823;247;24154;-77
2023/09/25 03:14:39;;;;;;;2.37;2.10;;;7.90;99.90;7.00;101825;;;;571839;247;24179;-77
2023/09/25 03:17:07;;;;;;;4.67;2.27;;;7.90;99.90;6.90;101820;;;;572265;247;24083;-78
2023/09/25 03:19:35;;;;;;;5.03;2.33;;;7.80;99.90;6.90;101813;;;;572095;247;24093;-78
2023/09/25 03:22:04;;;;;;;5.87;2.00;;;7.80;99.90;6.90;101823;;;;580813;247;24078;-77
2023/09/25 03:24:32;;;;;;;5.20;2.57;;;7.80;99.90;6.90;101831;;;;582540;241;24147;-78
2023/09/25 03:26:59;;;;;;;4.17;1.97;;;7.80;99.90;6.90;101823;;;;575114;245;24084;-78
2023/09/25 03:29:27;;;;;;;8.03;2.03;;;7.80;99.90;6.80;101834;;;;574962;246;24062;-77
2023/09/25 03:31:55;;;;;;;3.37;2.30;;;7.80;99.90;6.80;101824;;;;575065;246;24081;-77
2023/09/25 03:34:23;;;;;;;7.07;2.17;;;7.70;99.90;6.80;101824;;;;574902;246;24059;-77
2023/09/25 03:36:51;;;;;;;3.07;1.70;;;7.70;99.90;6.80;101823;;;;575136;246;24074;-78
2023/09/25 03:39:19;;;;;;;6.77;2.20;;;7.70;99.90;6.80;101820;;;;575080;246;24117;-77
2023/09/25 03:41:47;;;;;;;4.50;2.03;;;7.70;99.90;6.80;101823;;;;571910;247;24139;-77
2023/09/25 03:44:15;;;;;;;5.57;1.87;;;7.70;99.90;6.80;101822;;;;571924;247;24095;-77
2023/09/25 03:46:43;;;;;;;2.97;1.83;;;7.70;99.90;6.80;101826;;;;581618;246;24157;-77
2023/09/25 03:49:11;;;;;;;3.00;2.17;;;7.70;99.90;6.80;101829;;;;571891;247;24097;-78
2023/09/25 03:51:38;;;;;;;8.83;2.67;;;7.70;99.90;6.80;101828;;;;571357;247;24124;-77
2023/09/25 03:54:06;;;;;;;2.80;2.10;;;7.80;99.90;6.90;101826;;;;571853;247;24151;-76
2023/09/25 03:56:34;;;;;;;3.90;2.00;;;7.80;99.90;6.90;101835;;;;571053;247;24106;-77
2023/09/25 03:59:02;;;;;;;7.63;2.23;;;7.80;99.90;6.80;101837;;;;570888;247;24079;-77
2023/09/25 04:01:30;;;;;;;4.20;2.60;;;7.70;99.90;6.80;101844;;;;571476;247;24107;-77
2023/09/25 04:03:58;;;;;;;4.00;2.30;;;7.80;99.90;6.80;101852;;;;570917;247;24112;-77
2023/09/25 04:06:26;;;;;;;6.17;1.80;;;7.70;99.90;6.90;101858;;;;571019;247;24104;-76
2023/09/25 04:08:55;;;;;;;3.47;2.03;;;7.80;99.90;6.90;101862;;;;577518;247;24101;-77
2023/09/25 04:11:25;;;;;;;3.03;1.67;;;7.70;99.90;6.90;101856;;;;572662;247;24079;-77
2023/09/25 04:13:50;;;;;;;6.37;2.43;;;7.80;99.90;6.90;101852;;;;592010;238;24066;-77
2023/09/25 04:16:18;;;;;;;3.53;2.33;;;7.80;99.90;6.90;101849;;;;572615;247;24075;-77
2023/09/25 04:18:47;;;;;;;4.13;2.17;;;7.80;99.90;6.90;101854;;;;572047;243;24127;-78
2023/09/25 04:21:17;;;;;;;9.87;2.60;;;7.80;99.90;6.90;101856;;;;571764;247;24099;-78
2023/09/25 04:23:45;;;;;;;4.43;2.70;;;7.80;99.90;6.90;101853;;;;572352;247;24083;-77
2023/09/25 04:26:13;;;;;;;7.63;3.87;;;7.80;99.90;6.80;101860;;;;571941;247;24090;-77
2023/09/25 04:28:41;;;;;;;8.10;2.77;;;7.70;99.90;6.70;101862;;;;571262;247;24157;-77
2023/09/25 04:31:11;;;;;;;7.87;2.63;;;7.70;99.90;6.70;101855;;;;581653;247;24113;-77
2023/09/25 04:33:38;;;;;;;5.20;2.47;;;7.60;99.90;6.70;101860;;;;583123;242;24090;-77
2023/09/25 04:36:04;;;;;;;5.30;3.20;;;7.60;99.90;6.70;101851;;;;582284;242;24058;-77
2023/09/25 04:38:32;;;;;;;4.20;3.10;;;7.60;99.90;6.70;101854;;;;572170;247;24094;-77
2023/09/25 04:41:00;;;;;;;5.93;3.20;;;7.60;99.90;6.80;101851;;;;572138;245;24172;-77
2023/09/25 04:43:31;;;;;;;12.17;3.47;;;7.70;99.90;6.80;101845;;;;567161;247;46186;-77
2023/09/25 04:45:58;;;;;;;5.17;2.53;;;7.70;99.90;6.90;101849;;;;571789;247;24102;-78
2023/09/25 04:48:24;;;;;;;6.83;2.40;;;7.70;99.90;6.90;101844;;;;571923;247;24115;-77
2023/09/25 04:50:52;;;;;;;3.23;2.23;;;7.90;99.90;7.00;101846;;;;581669;247;24165;-77
2023/09/25 04:53:20;;;;;;;5.00;2.27;;;7.80;99.90;7.10;101848;;;;571323;247;24120;-77
2023/09/25 04:55:48;;;;;;;3.43;3.03;;;7.90;99.90;7.10;101850;;;;571912;247;24173;-77
2023/09/25 04:58:16;;;;;;;3.53;2.50;;;8.00;99.90;7.20;101853;;;;571420;247;24090;-77
2023/09/25 05:00:44;;;;;;;8.70;2.33;;;8.00;99.90;7.30;101850;;;;580262;244;24103;-78
2023/09/25 05:03:15;;;;;;;5.97;1.93;;;8.10;99.90;7.40;101853;;;;570955;247;24085;-77
2023/09/25 05:05:40;;;;;;;2.27;2.07;;;8.20;99.90;7.50;101851;;;;581668;242;24093;-77
2023/09/25 05:08:08;;;;;;;14.13;2.63;;;8.30;99.90;7.60;101848;;;;581894;242;24052;-78
2023/09/25 05:10:36;;;;;;;5.73;2.83;;;8.40;99.90;7.70;101842;;;;571271;246;24102;-78
2023/09/25 05:13:07;;;;;;;4.87;2.90;;;8.50;99.90;7.80;101850;;;;581631;243;24102;-77
2023/09/25 05:15:31;;;;;;;4.13;2.87;;;8.60;99.90;7.80;101857;;;;571546;247;24131;-78
2023/09/25 05:17:59;;;;;;;5.07;3.03;;;8.70;99.90;7.90;101856;;;;571292;247;24093;-77
2023/09/25 05:20:27;;;;;;;5.97;3.37;;;8.80;99.90;8.10;101858;;;;571254;247;24103;-78
2023/09/25 05:22:59;;;;;;;8.20;4.50;;;8.90;99.90;8.20;101869;;;;568095;242;35352;-78
2023/09/25 05:25:26;;;;;;;15.17;3.93;;;9.00;99.90;8.30;101873;;;;571955;247;24095;-78
2023/09/25 05:27:51;;;;;;;4.40;3.27;;;9.10;99.90;8.40;101874;;;;583669;242;24097;-78
2023/09/25 05:30:20;;;;;;;8.87;3.17;;;9.40;99.90;8.60;101875;;;;575528;245;24076;-76
2023/09/25 05:32:51;;;;;;;5.93;2.77;;;9.30;99.90;8.70;101869;;;;575244;245;24066;-78
2023/09/25 05:35:19;;;;;;;11.30;4.17;;;9.50;99.90;8.80;101864;;;;591283;242;24133;-78
2023/09/25 05:37:45;;;;;;;5.97;3.77;;;9.60;99.90;9.00;101873;;;;571792;247;24119;-78
2023/09/25 05:40:11;;;;;;;7.37;3.40;;;9.80;99.90;9.20;101878;;;;572036;247;24114;-77
2023/09/25 05:42:39;;;;;;;5.17;3.17;;;9.90;99.90;9.30;101874;;;;572070;247;24090;-78
2023/09/25 05:45:07;;;;;;;5.33;3.10;;;10.10;99.90;9.80;101879;;;;572062;247;24084;-78
2023/09/25 05:47:35;;;;;;;12.30;3.30;;;10.50;99.90;11.40;101882;;;;571555;247;24146;-77
2023/09/25 05:50:06;;;;;;;9.73;3.50;;;11.70;99.90;13.30;101897;;;;582606;242;24099;-77
2023/09/25 05:52:31;;;;;;;9.50;4.27;;;13.50;99.90;15.20;101904;;;;582411;242;24096;-77
2023/09/25 05:54:59;;;;;;;5.97;2.47;;;15.30;99.90;16.80;101899;;;;572037;247;24105;-78
2023/09/25 05:57:27;;;;;;;4.50;2.20;;;17.00;99.90;18.20;101915;;;;570570;248;24073;-78
2023/09/25 05:59:55;;;;;;;5.73;1.90;;;19.90;99.90;19.70;101906;;;;582026;242;24120;-78
2023/09/25 06:02:24;;;;;;;5.97;2.00;;;21.10;99.90;20.80;101905;;;;581859;242;23087;-78
2023/09/25 06:04:52;;;;;;;7.00;2.50;;;21.10;99.90;22.00;101900;;;;571091;247;24121;-78
2023/09/25 06:07:23;;;;;;;1.87;1.70;;;22.30;99.90;23.00;101909;;;;569992;248;24097;-79
2023/09/25 06:09:49;;;;;;;3.47;2.40;;;23.40;99.90;23.80;101914;;;;581608;242;24147;-79
2023/09/25 06:12:16;;;;;;;6.43;2.37;;;24.30;99.90;24.80;101911;;;;581836;242;23085;-79
2023/09/25 06:14:44;;;;;;;4.50;2.00;;;25.10;99.90;25.60;101915;;;;570989;247;24107;-79
2023/09/25 06:17:12;;;;;;;5.20;2.13;;;26.10;96.00;26.50;101920;;;;570030;248;23113;-78
2023/09/25 06:19:40;;;;;;;2.93;1.80;;;26.90;93.50;27.40;101924;;;;581909;242;23069;-78
2023/09/25 06:22:07;;;;;;;5.35;2.03;;;27.70;90.20;28.10;101921;;;;582176;242;24087;-79
2023/09/25 06:24:35;;;;;;;2.25;1.77;;;28.40;85.10;28.80;101932;;;;574361;247;23108;-78
2023/09/25 06:27:04;;;;;;;2.75;1.75;;;29.80;76.30;29.50;101926;;;;571445;247;24151;-78
2023/09/25 06:29:32;;;;;;;2.70;1.73;;;29.70;76.20;30.00;101921;;;;571452;246;23112;-79
2023/09/25 06:32:00;;;;;;;4.28;1.73;;;30.30;72.70;30.50;101933;;;;574201;247;24158;-78
2023/09/25 06:34:28;;;;;;;2.95;1.80;;;30.80;70.10;31.10;101943;;;;573045;246;23076;-78
2023/09/25 06:36:56;;;;;;;8.30;2.47;;;31.40;68.00;31.60;101947;;;;581711;243;24151;-78
2023/09/25 06:39:24;;;;;;;3.67;2.33;;;31.90;64.30;32.10;101944;;;;581374;243;24122;-78
2023/09/25 06:41:52;;;;;;;6.25;1.90;;;32.40;62.80;32.40;101948;;;;572359;247;23096;-79
2023/09/25 06:44:19;;;;;;;5.57;2.12;;;32.80;59.20;32.70;101949;;;;582356;242;23076;-78
2023/09/25 06:46:47;;;;;;;3.33;2.22;;;33.00;57.30;32.90;101954;;;;570620;247;24192;-79
2023/09/25 06:49:17;;;;;;;3.37;2.00;;;33.20;57.20;33.10;101960;;;;582519;242;23052;-79
2023/09/25 06:51:44;;;;;;;2.50;2.05;;;33.80;56.00;33.40;101957;;;;582257;242;23143;-78
2023/09/25 06:54:12;;;;;;;2.90;1.80;;;33.70;55.90;33.10;101970;;;;562288;249;23100;-77
2023/09/25 06:56:40;;;;;;;5.15;2.00;;;33.70;55.50;33.10;101976;;;;565711;249;24135;-77
2023/09/25 06:59:09;;;;;;;3.53;1.62;;;34.00;55.40;33.70;101976;;;;565781;249;23138;-77
2023/09/25 07:01:36;;;;;;;5.93;1.85;;;33.90;55.30;34.20;101974;;;;573172;247;24147;-77
2023/09/25 07:04:04;;;;;;;3.58;2.03;;;34.50;54.20;35.00;101973;;;;571941;241;23190;-78
2023/09/25 07:06:33;;;;;;;2.62;1.55;;;35.20;53.30;35.70;101980;;;;566315;249;23094;-78
2023/09/25 07:09:00;;;;;;;2.10;1.45;;;35.80;51.60;36.10;101980;;;;567732;249;23100;-78
2023/09/25 07:11:28;;;;;;;3.10;1.98;;;36.30;50.30;36.40;101981;;;;570403;246;23069;-78
2023/09/25 07:13:56;;;;;;;2.83;1.62;;;36.60;50.40;36.70;101989;;;;566371;246;23107;-80
2023/09/25 07:16:28;;;;;;;5.57;1.80;;;37.00;49.40;36.60;101988;;;;562985;251;23159;-78
2023/09/25 07:18:55;;;;;;;3.03;1.62;;;37.00;48.60;36.90;101990;;;;572583;246;23175;-80
2023/09/25 07:21:20;;;;;;;3.78;1.50;;;37.50;47.90;37.20;101985;;;;566024;249;24125;-80
2023/09/25 07:23:48;;;;;;;2.58;1.58;;;37.50;48.00;37.30;101993;;;;572669;250;24147;-80
2023/09/25 07:26:17;;;;;;;4.85;1.92;;;37.70;46.70;37.40;101991;;;;573253;246;23083;-79
2023/09/25 07:28:47;;;;;;;6.30;1.92;;;37.80;46.90;37.60;101988;;;;562833;251;23132;-77
2023/09/25 07:31:22;;;;;;;3.30;1.98;;;38.00;46.40;37.70;102000;;;;562783;251;23164;-79
2023/09/25 07:33:49;;;;;;;3.92;1.52;;;38.10;46.70;38.10;102007;;;;573260;246;24155;-79
2023/09/25 07:36:20;;;;;;;2.55;1.83;;;38.40;46.20;38.40;102015;;;;565933;250;23132;-78
2023/09/25 07:38:50;;;;;;;6.22;1.83;;;38.70;44.80;38.10;102014;;;;566046;249;24134;-79
2023/09/25 07:41:15;;;;;;;1.85;1.62;;;38.50;44.90;37.70;102017;;;;565588;250;24196;-79
2023/09/25 07:43:43;;;;;;;2.87;1.70;;;38.30;44.90;37.80;102020;;;;569135;248;35294;-78
2023/09/25 07:46:12;;;;;;;3.28;1.40;;;38.60;44.80;38.20;102024;;;;566993;249;23106;-78
2023/09/25 07:48:40;;;;;;;3.47;1.48;;;38.40;44.50;37.90;102026;;;;566623;249;23122;-81
2023/09/25 07:51:09;;;;;;;2.70;1.45;;;37.90;44.60;37.40;102030;;;;566485;249;23140;-78
2023/09/25 07:53:39;;;;;;;3.05;1.30;;;37.90;44.60;37.10;102023;;;;566303;249;24138;-78
2023/09/25 07:56:05;;;;;;;1.67;1.40;;;37.60;45.10;37.60;102026;;;;566562;249;23098;-78
2023/09/25 07:58:34;;;;;;;3.58;1.30;;;38.00;45.00;37.40;102027;;;;566144;249;23155;-79
2023/09/25 08:01:04;;;;;;;2.75;1.27;;;38.00;43.80;36.80;102027;;;;566041;249;24194;-78
2023/09/25 08:03:32;;;;;;;2.15;1.20;;;37.50;44.60;36.60;102026;;;;566981;249;23111;-79
2023/09/25 08:05:57;;;;;;;3.42;1.92;;;37.30;44.90;36.70;102022;;;;563557;251;23131;-78
2023/09/25 08:08:24;;;;;;;5.72;1.60;;;37.20;44.50;36.50;102025;;;;562945;251;23169;-79
2023/09/25 08:10:53;;;;;;;2.22;1.50;;;37.30;44.90;36.70;102028;;;;563279;246;23111;-78
2023/09/25 08:13:21;;;;;;;4.03;1.70;;;37.30;44.90;37.30;102032;;;;594834;236;24054;-80
2023/09/25 08:15:49;;;;;;;5.05;1.67;;;37.80;44.30;37.30;102035;;;;581770;241;23150;-78
2023/09/25 08:18:17;;;;;;;2.33;1.58;;;37.90;44.30;37.20;102030;;;;581067;243;23074;-80
2023/09/25 08:20:45;;;;;;;3.87;2.08;;;37.90;43.90;37.30;102036;;;;567070;249;23100;-81
2023/09/25 08:23:13;;;;;;;5.72;1.75;;;38.10;44.10;37.30;102032;;;;566891;249;23121;-79
2023/09/25 08:25:41;;;;;;;2.25;1.33;;;38.10;43.60;37.20;102029;;;;567181;249;23103;-78
2023/09/25 08:28:09;;;;;;;3.83;1.35;;;38.00;43.90;36.90;102028;;;;573903;246;24132;-82
2023/09/25 08:30:37;;;;;;;2.90;1.52;;;37.90;44.20;36.90;102034;;;;577606;244;23105;-80
2023/09/25 08:33:05;;;;;;;3.30;1.80;;;37.90;43.50;36.30;102019;;;;577729;246;23150;-79
2023/09/25 08:35:33;;;;;;;4.05;1.60;;;37.40;43.90;35.90;102033;;;;577996;246;24152;-79
2023/09/25 08:38:01;;;;;;;2.03;1.67;;;37.00;44.30;35.60;102032;;;;577846;246;23121;-79
2023/09/25 08:40:29;;;;;;;1.60;1.37;;;36.70;44.60;35.10;102028;;;;577984;244;23133;-80
2023/09/25 08:42:57;;;;;;;4.12;2.00;;;36.40;45.20;35.10;102027;;;;573023;246;24158;-80
2023/09/25 08:45:24;;;;;;;2.78;1.80;;;36.20;45.60;36.00;102023;;;;570391;249;24170;-82
2023/09/25 08:47:52;;;;;;;4.85;1.95;;;36.70;45.20;36.70;102026;;;;563520;250;23170;-81
2023/09/25 08:50:20;;;;;;;4.82;1.73;;;37.50;44.90;37.10;102037;;;;582018;236;23059;-81
2023/09/25 08:52:49;;;;;;;4.65;1.67;;;37.70;43.30;36.30;102028;;;;584781;241;23085;-83
2023/09/25 08:55:17;;;;;;;3.62;1.73;;;37.70;43.30;35.10;102028;;;;586054;241;24087;-82
2023/09/25 08:57:45;;;;;;;2.78;1.30;;;36.80;44.10;34.90;102034;;;;587275;240;23083;-84
2023/09/25 09:00:16;;;;;;;3.40;1.35;;;36.40;44.90;35.10;102025;;;;592540;240;23063;-80
2023/09/25 09:02:41;;;;;;;2.85;1.45;;;36.40;44.80;35.60;102025;;;;562543;250;23201;-79
2023/09/25 09:05:12;;;;;;;1.62;1.50;;;37.00;44.40;35.80;102017;;;;572779;246;23132;-78
2023/09/25 09:07:40;;;;;;;2.75;1.50;;;37.00;44.30;36.40;102009;;;;567284;248;23142;-79
2023/09/25 09:10:08;;;;;;;2.45;1.80;;;38.10;43.00;37.00;102014;;;;562981;251;23174;-80
2023/09/25 09:12:55;;;;;;;1.85;1.40;;;38.10;42.90;37.10;102015;;;;572399;246;24120;-79
2023/09/25 09:15:26;;;;;;;4.93;1.33;;;38.40;42.90;37.30;102009;;;;572025;246;24146;-79
2023/09/25 09:17:54;;;;;;;2.30;2.10;;;38.20;42.20;36.60;102011;;;;561679;251;23180;-79
2023/09/25 09:20:21;;;;;;;2.80;1.70;;;38.20;41.80;35.40;102011;;;;572674;246;24141;-79
2023/09/25 09:22:55;;;;;;;3.12;2.03;;;37.30;42.90;34.40;102011;;;;563017;251;24170;-79
2023/09/25 09:25:27;;;;;;;4.75;1.60;;;36.30;44.60;33.40;102009;;;;562342;251;23126;-78
2023/09/25 09:27:55;;;;;;;4.40;1.80;;;34.20;46.20;32.20;101995;;;;568172;246;35242;-78
2023/09/25 09:30:26;;;;;;;2.97;1.45;;;34.10;46.10;31.40;102009;;;;562836;251;24100;-77
2023/09/25 09:32:51;;;;;;;6.53;1.37;;;33.10;47.30;30.90;101999;;;;562695;251;23121;-79
2023/09/25 09:35:27;;;;;;;9.57;1.70;;;32.50;48.30;31.50;101988;;;;567511;246;35223;-79
2023/09/25 09:37:55;;;;;;;2.35;1.35;;;32.60;48.50;31.80;101993;;;;570871;251;23137;-77
2023/09/25 09:40:26;;;;;;;2.47;1.45;;;32.80;48.50;31.70;101983;;;;577244;246;23090;-78
2023/09/25 09:42:54;;;;;;;1.55;1.42;;;32.80;49.00;31.80;101984;;;;570842;250;24115;-79
2023/09/25 09:45:24;;;;;;;5.28;1.55;;;32.90;48.40;31.90;101977;;;;572684;246;23082;-77
2023/09/25 09:47:50;;;;;;;1.87;1.02;;;33.00;48.60;31.80;101980;;;;570475;251;23141;-80
2023/09/25 09:50:17;;;;;;;2.28;1.33;;;32.90;49.00;31.90;101973;;;;566459;251;23223;-79
2023/09/25 09:52:45;;;;;;;3.28;1.73;;;33.00;49.80;32.50;101980;;;;561191;251;23145;-79
2023/09/25 09:55:14;;;;;;;20.05;3.70;;;33.40;49.70;32.90;101972;;;;572290;246;23086;-80
2023/09/25 09:57:41;;;;;;;8.90;5.12;;;33.90;48.10;32.80;101976;;;;567492;249;24140;-80
2023/09/25 10:00:09;;;;;;;3.17;1.80;;;34.00;48.00;32.50;101982;;;;561590;251;23141;-79
2023/09/25 10:02:37;;;;;;;2.70;1.25;;;33.80;48.60;32.30;101972;;;;581209;246;24127;-79
2023/09/25 10:05:09;;;;;;;2.58;1.30;;;33.60;48.70;31.60;101968;;;;572336;242;23098;-79
2023/09/25 10:07:33;;;;;;;2.80;1.30;;;33.00;48.80;30.90;101960;;;;571694;244;23115;-80
2023/09/25 10:10:07;;;;;;;2.42;1.20;;;32.40;50.10;30.50;101960;;;;573832;246;24171;-80
2023/09/25 10:12:41;;;;;;;2.05;1.30;;;31.90;51.30;30.00;101951;;;;573252;246;23187;-80
2023/09/25 10:15:12;;;;;;;4.55;1.83;;;30.60;53.10;29.30;101946;;;;572682;246;23105;-78
2023/09/25 10:17:44;;;;;;;2.33;1.60;;;30.50;53.00;28.60;101942;;;;572757;246;23152;-78
2023/09/25 10:20:34;;;;;;;6.80;1.40;;;29.10;56.00;28.10;101942;;;;582929;246;23116;-79
2023/09/25 10:23:10;;;;;;;6.80;1.83;;;29.10;56.00;27.50;101951;;;;572413;246;23091;-79
2023/09/25 10:25:57;;;;;;;2.65;1.62;;;28.60;56.70;27.20;101950;;;;572827;246;23086;-79
2023/09/25 10:28:33;;;;;;;8.00;2.20;;;28.20;57.50;26.70;101942;;;;572800;246;24157;-80
2023/09/25 10:31:01;;;;;;;5.72;1.58;;;27.70;58.70;26.30;101941;;;;572256;246;24080;-78
2023/09/25 10:33:33;;;;;;;4.63;1.80;;;26.60;61.60;25.80;101943;;;;572194;246;23117;-77
2023/09/25 10:36:00;;;;;;;2.70;1.20;;;26.50;61.50;25.40;101939;;;;583290;246;24104;-78
2023/09/25 10:38:32;;;;;;;5.17;1.47;;;25.30;65.00;24.60;101938;;;;572948;246;23152;-78
2023/09/25 10:41:07;;;;;;;2.70;1.53;;;24.40;67.50;23.70;101934;;;;572785;246;25283;-78
2023/09/25 10:43:35;;;;;;;1.73;1.50;;;24.30;67.40;23.20;101928;;;;572835;246;24151;-76
2023/09/25 10:46:03;;;;;;;3.53;1.43;;;23.70;70.20;22.50;101922;;;;572718;246;24069;-79
2023/09/25 10:48:34;;;;;;;7.63;1.63;;;23.10;72.20;22.00;101915;;;;576892;244;24139;-78
2023/09/25 10:50:58;;;;;;;2.80;1.63;;;22.60;74.30;21.90;101914;;;;572334;246;24105;-78
2023/09/25 10:53:26;;;;;;;2.90;1.37;;;22.30;76.00;21.80;101913;;;;572335;246;24135;-78
2023/09/25 10:55:55;;;;;;;2.07;1.03;;;22.00;77.90;21.70;101909;;;;572400;246;24134;-78
2023/09/25 10:58:25;;;;;;;1.73;1.63;;;21.90;78.70;21.50;101910;;;;572311;246;25159;-80
2023/09/25 11:00:53;;;;;;;2.17;1.30;;;21.80;78.70;21.30;101895;;;;572283;246;24137;-78
2023/09/25 11:03:22;;;;;;;3.53;1.30;;;21.60;80.80;21.20;101901;;;;572316;246;24075;-78
2023/09/25 11:05:53;;;;;;;1.70;1.40;;;21.50;80.80;21.10;101901;;;;572108;246;24091;-78
2023/09/25 11:08:18;;;;;;;1.17;1.17;;;21.50;81.50;21.00;101896;;;;572080;246;24146;-78
2023/09/25 11:10:45;;;;;;;2.47;1.33;;;21.40;82.30;21.00;101896;;;;572262;246;24153;-79
2023/09/25 11:13:13;;;;;;;2.77;1.40;;;21.40;83.00;21.00;101893;;;;572334;246;24158;-79
2023/09/25 11:15:43;;;;;;;3.07;1.30;;;21.30;83.70;20.80;101891;;;;572328;246;24075;-77
2023/09/25 11:18:10;;;;;;;1.00;0.97;;;21.10;84.40;20.60;101881;;;;572203;246;24107;-79
2023/09/25 11:20:41;;;;;;;2.47;1.10;;;20.90;85.70;20.40;101896;;;;573437;246;24162;-78
2023/09/25 11:23:10;;;;;;;1.60;1.17;;;20.90;85.70;20.30;101890;;;;573210;246;24124;-77